Time;durP1;ratioP1;P1;durP2;ratioP2;P2;SDS_P1;SDS_P2;PMS_P1;PMS_P2;Temp;Humidity;BMP_temperature;BMP_pressure;BME280_temperature;BME280_humidity;BME280_pressure;Samples;Min_cycle;Max_cycle;Signal;HPM_P1;HPM_P2
2024/03/18 00:00:49;;;;;;;17.55;13.43;;;;;;;31.11;76.90;101075.06;5035089;28;70282;-30
2024/03/18 00:03:20;;;;;;;23.00;14.25;;;;;;;31.20;77.11;101080.22;5036232;28;65868;-30
2024/03/18 00:05:48;;;;;;;21.52;13.73;;;;;;;31.16;77.33;101083.38;5033344;28;70399;-32
2024/03/18 00:08:17;;;;;;;18.23;12.90;;;;;;;31.20;77.16;101080.22;5044275;28;65828;-31
2024/03/18 00:10:46;;;;;;;17.15;13.50;;;;;;;31.21;76.95;101088.16;5042707;28;68899;-29
2024/03/18 00:13:14;;;;;;;17.42;13.23;;;;;;;31.21;77.88;101090.03;5037753;28;66106;-31
2024/03/18 00:15:44;;;;;;;14.95;12.30;;;;;;;31.22;77.95;101095.22;5025145;28;70752;-30
2024/03/18 00:18:14;;;;;;;19.40;13.50;;;;;;;31.21;77.55;101087.31;5026174;28;66728;-30
2024/03/18 00:20:42;;;;;;;21.42;11.57;;;;;;;31.24;78.02;101108.56;5024107;28;70667;-31
2024/03/18 00:23:11;;;;;;;12.70;11.40;;;;;;;31.25;78.38;101104.78;5031733;28;66264;-30
2024/03/18 00:25:42;;;;;;;19.17;13.23;;;;;;;31.27;78.39;101113.53;5026075;28;69370;-30
2024/03/18 00:28:12;;;;;;;17.50;12.55;;;;;;;31.20;78.16;101096.47;5048022;28;65900;-30
2024/03/18 00:30:41;;;;;;;16.27;13.52;;;;;;;31.26;78.29;101111.84;4989792;28;69671;-31
2024/03/18 00:33:10;;;;;;;16.92;12.57;;;;;;;31.26;78.52;101111.84;5042229;28;66680;-31
2024/03/18 00:35:39;;;;;;;19.00;11.57;;;;;;;31.26;78.59;101109.16;5034658;28;69969;-31
2024/03/18 00:38:08;;;;;;;13.88;12.43;;;;;;;31.25;78.89;101115.63;5025133;28;66286;-32
2024/03/18 00:40:36;;;;;;;15.88;12.15;;;;;;;31.21;79.07;101107.13;5023961;28;68982;-30
2024/03/18 00:43:05;;;;;;;17.83;11.52;;;;;;;31.26;78.94;101122.69;5013842;28;66375;-30
2024/03/18 00:45:34;;;;;;;12.55;11.02;;;;;;;31.26;78.30;101117.28;5036237;28;69964;-30
2024/03/18 00:48:04;;;;;;;16.02;11.40;;;;;;;31.27;78.85;101113.53;5047444;28;66343;-31
2024/03/18 00:50:32;;;;;;;19.30;10.88;;;;;;;31.28;78.88;101126.03;5051246;28;69834;-30
2024/03/18 00:53:02;;;;;;;12.57;10.25;;;;;;;31.28;78.84;101132.28;5039003;28;66792;-31
2024/03/18 00:55:36;;;;;;;15.85;10.80;;;;;;;31.15;78.72;101114.22;5039374;28;69942;-30
2024/03/18 00:58:07;;;;;;;14.77;10.98;;;;;;;31.27;78.77;101136.06;5020624;28;66147;-30
2024/03/18 01:00:36;;;;;;;11.55;10.43;;;;;;;31.25;78.56;101134.59;5030607;28;70194;-31
2024/03/18 01:03:07;;;;;;;15.23;10.77;;;;;;;31.31;78.74;101144.56;5037623;28;67010;-29
2024/03/18 01:05:36;;;;;;;15.73;10.48;;;;;;;31.30;78.38;101153.75;5041745;28;69458;-30
2024/03/18 01:08:06;;;;;;;15.07;11.13;;;;;;;31.31;78.52;101141.84;5018088;28;66314;-33
2024/03/18 01:10:35;;;;;;;13.43;10.77;;;;;;;31.33;78.35;101140.59;5028928;28;69535;-30
2024/03/18 01:13:06;;;;;;;14.93;10.00;;;;;;;31.33;78.33;101148.72;5028852;28;66517;-31
2024/03/18 01:15:36;;;;;;;13.52;10.38;;;;;;;31.35;78.42;101153.94;5015363;28;70133;-30
2024/03/18 01:18:05;;;;;;;15.43;10.48;;;;;;;31.36;78.37;101150.22;5039600;28;65608;-30
2024/03/18 01:20:35;;;;;;;17.02;10.75;;;;;;;31.35;78.37;101151.25;5012434;28;70035;-30
2024/03/18 01:23:04;;;;;;;14.45;10.20;;;;;;;31.36;78.34;101151.03;5026444;28;66699;-31
2024/03/18 01:25:36;;;;;;;10.68;9.63;;;;;;;31.39;78.49;101166.03;5021922;28;69471;-31
2024/03/18 01:28:06;;;;;;;12.85;10.10;;;;;;;31.36;78.38;101150.22;5024569;28;65587;-31
2024/03/18 01:30:34;;;;;;;11.48;10.35;;;;;;;31.39;78.41;101160.63;5031323;28;70419;-30
2024/03/18 01:33:03;;;;;;;18.52;9.95;;;;;;;31.39;78.42;101158.72;5029483;28;66255;-29
2024/03/18 01:35:33;;;;;;;14.30;9.63;;;;;;;31.43;78.69;101166.44;5019583;28;70284;-31
2024/03/18 01:38:05;;;;;;;14.75;9.85;;;;;;;31.45;78.51;101176.00;5032978;28;65995;-32
2024/03/18 01:40:34;;;;;;;11.85;9.68;;;;;;;31.43;78.65;101167.28;5001679;28;70054;-30
2024/03/18 01:43:03;;;;;;;11.20;9.30;;;;;;;31.49;78.60;101179.97;5019475;28;65374;-31
2024/03/18 01:45:32;;;;;;;13.88;9.68;;;;;;;31.48;78.60;101175.59;5027045;28;70620;-31
2024/03/18 01:48:01;;;;;;;15.13;9.13;;;;;;;31.51;78.50;101169.75;5029175;28;66439;-30
2024/03/18 01:50:30;;;;;;;10.50;8.48;;;;;;;31.53;78.38;101177.63;5036769;28;70504;-31
2024/03/18 01:52:59;;;;;;;13.13;9.23;;;;;;;31.49;78.44;101171.81;5022641;28;66193;-31
2024/03/18 01:55:28;;;;;;;12.57;9.15;;;;;;;31.53;78.40;101183.88;5024766;28;69951;-31
2024/03/18 01:57:57;;;;;;;10.60;8.70;;;;;;;31.56;78.07;101194.28;5027928;28;66438;-31
2024/03/18 02:00:33;;;;;;;13.63;9.20;;;;;;;31.58;78.48;101186.78;5026036;28;69360;-31
2024/03/18 02:03:04;;;;;;;10.18;9.13;;;;;;;31.56;77.83;101183.44;5028352;28;66165;-30
2024/03/18 02:05:33;;;;;;;10.77;8.38;;;;;;;31.62;78.29;101192.59;5018638;28;70925;-31
2024/03/18 02:08:03;;;;;;;9.82;8.30;;;;;;;31.65;77.77;101185.91;5031286;28;65390;-32
2024/03/18 02:10:32;;;;;;;10.43;8.32;;;;;;;31.63;77.90;101182.59;5007149;28;70196;-31
2024/03/18 02:13:03;;;;;;;9.75;8.40;;;;;;;31.47;77.80;101157.66;5014263;28;66575;-31
2024/03/18 02:15:33;;;;;;;9.70;8.65;;;;;;;31.68;78.17;101183.59;5019786;28;69753;-32
2024/03/18 02:18:01;;;;;;;10.90;8.82;;;;;;;31.70;77.85;101186.09;5025225;28;65153;-31
2024/03/18 02:20:30;;;;;;;9.32;8.18;;;;;;;31.74;77.73;101184.59;5038876;28;70254;-30
2024/03/18 02:22:59;;;;;;;11.52;8.80;;;;;;;31.74;77.87;101171.03;5024397;28;65325;-31
2024/03/18 02:25:28;;;;;;;14.38;8.32;;;;;;;31.77;77.66;101174.16;5038040;28;70180;-31
2024/03/18 02:27:56;;;;;;;9.90;8.40;;;;;;;31.79;77.65;101176.66;5024117;28;66113;-30
2024/03/18 02:30:26;;;;;;;11.88;8.35;;;;;;;31.82;77.54;101170.78;5021880;28;70406;-31
2024/03/18 02:32:54;;;;;;;9.40;8.27;;;;;;;31.85;77.29;101170.34;5022527;28;66385;-31
2024/03/18 02:35:24;;;;;;;8.48;7.60;;;;;;;31.87;77.52;101168.22;5008362;28;69783;-33
2024/03/18 02:37:56;;;;;;;9.60;8.02;;;;;;;31.91;77.45;101168.63;5043747;28;67401;-32
2024/03/18 02:40:25;;;;;;;8.25;7.43;;;;;;;31.80;77.26;101148.47;5028870;28;70133;-32
2024/03/18 02:42:53;;;;;;;8.35;7.57;;;;;;;31.95;77.20;101165.25;5023604;28;65565;-32
2024/03/18 02:45:22;;;;;;;9.55;7.97;;;;;;;31.98;77.17;101162.13;5002950;28;69763;-32
2024/03/18 02:47:51;;;;;;;10.93;7.75;;;;;;;31.99;77.29;101161.06;5000345;28;65782;-32
2024/03/18 02:50:21;;;;;;;12.25;8.30;;;;;;;32.02;76.98;101157.91;5011918;28;70786;-32
2024/03/18 02:52:50;;;;;;;12.13;7.45;;;;;;;32.00;77.04;101146.44;5020715;28;66353;-32
2024/03/18 02:55:19;;;;;;;9.73;7.63;;;;;;;32.05;76.74;101154.75;5020605;28;70031;-31
2024/03/18 02:57:47;;;;;;;7.82;7.18;;;;;;;32.12;76.68;101151.16;5032530;28;65834;-31
2024/03/18 03:00:17;;;;;;;8.27;7.60;;;;;;;32.13;76.66;101140.09;5028851;28;70382;-31
2024/03/18 03:02:46;;;;;;;10.77;7.97;;;;;;;32.18;76.43;101147.53;5017142;28;65345;-32
2024/03/18 03:05:15;;;;;;;8.98;7.32;;;;;;;32.20;76.55;101145.44;5017872;28;69589;-32
2024/03/18 03:07:44;;;;;;;8.95;8.18;;;;;;;32.18;76.25;101132.09;5021074;28;66709;-31
2024/03/18 03:10:13;;;;;;;10.43;7.78;;;;;;;32.26;76.49;101136.38;5021883;28;69656;-31
2024/03/18 03:12:41;;;;;;;10.15;7.90;;;;;;;32.26;76.53;101128.25;5019578;28;65574;-33
2024/03/18 03:15:10;;;;;;;7.53;7.03;;;;;;;32.30;76.25;101132.19;5033213;28;70520;-32
2024/03/18 03:17:39;;;;;;;9.18;7.65;;;;;;;32.32;76.33;101138.22;5012139;28;66432;-32
2024/03/18 03:20:08;;;;;;;8.48;7.72;;;;;;;32.35;76.29;101124.22;5043299;28;69699;-33
2024/03/18 03:22:38;;;;;;;9.05;8.10;;;;;;;32.37;75.98;101130.22;5050496;28;65721;-32
2024/03/18 03:25:07;;;;;;;8.18;7.47;;;;;;;32.40;75.80;101124.38;5046168;28;70381;-31
2024/03/18 03:27:36;;;;;;;8.02;7.22;;;;;;;32.42;75.99;101122.25;5032486;28;65950;-31
2024/03/18 03:30:06;;;;;;;7.75;7.10;;;;;;;32.44;75.90;101114.72;5027454;28;71349;-31
2024/03/18 03:32:37;;;;;;;8.32;7.50;;;;;;;32.46;75.93;101109.91;5028164;28;65281;-32
2024/03/18 03:35:06;;;;;;;8.18;7.40;;;;;;;32.49;75.75;101112.19;5030480;28;69397;-30
2024/03/18 03:37:36;;;;;;;7.25;6.82;;;;;;;32.53;75.91;101114.44;5036159;28;65663;-31
2024/03/18 03:40:12;;;;;;;9.48;7.80;;;;;;;32.56;75.57;101116.69;5027287;28;71153;-30
2024/03/18 03:42:41;;;;;;;8.13;7.50;;;;;;;32.58;75.69;101109.16;5037482;28;65392;-31
2024/03/18 03:45:09;;;;;;;8.57;7.40;;;;;;;32.59;75.59;101100.78;5021484;28;70556;-32
2024/03/18 03:47:39;;;;;;;8.43;7.25;;;;;;;32.58;75.54;101093.69;5032225;28;65722;-34
2024/03/18 03:50:10;;;;;;;7.90;7.30;;;;;;;32.45;75.13;101059.34;5024862;28;70118;-34
2024/03/18 03:52:39;;;;;;;10.50;7.90;;;;;;;32.66;75.51;101090.69;5018251;28;65932;-32
2024/03/18 03:55:08;;;;;;;10.60;7.57;;;;;;;32.67;75.23;101080.63;5017936;28;70009;-31
2024/03/18 03:57:38;;;;;;;9.25;7.30;;;;;;;32.70;75.17;101074.75;4993555;28;66609;-31
2024/03/18 04:00:11;;;;;;;8.40;7.80;;;;;;;32.72;75.24;101073.47;5020455;28;69513;-31
2024/03/18 04:02:40;;;;;;;7.50;6.90;;;;;;;32.73;75.26;101068.84;5021513;28;66441;-32
2024/03/18 04:05:09;;;;;;;10.70;7.43;;;;;;;32.74;75.27;101070.53;5019383;28;69400;-30
2024/03/18 04:07:38;;;;;;;9.18;8.35;;;;;;;32.70;75.26;101058.44;5025219;28;66700;-31
2024/03/18 04:10:08;;;;;;;10.18;7.57;;;;;;;32.80;75.15;101064.16;5005751;28;70539;-30
2024/03/18 04:12:37;;;;;;;7.50;7.00;;;;;;;32.74;75.11;101051.50;4988932;28;66148;-31
2024/03/18 04:15:07;;;;;;;7.72;7.22;;;;;;;32.85;75.00;101058.06;5024270;28;70186;-33
2024/03/18 04:17:37;;;;;;;8.35;7.07;;;;;;;32.87;75.01;101042.34;5036388;28;65687;-31
2024/03/18 04:20:18;;;;;;;8.57;7.72;;;;;;;32.90;74.76;101031.84;5027551;28;70454;-31
2024/03/18 04:22:52;;;;;;;8.68;7.32;;;;;;;32.92;74.82;101035.16;5032586;28;66765;-32
2024/03/18 04:25:23;;;;;;;7.88;6.75;;;;;;;32.91;74.55;101028.06;5030516;28;69111;-31
2024/03/18 04:27:51;;;;;;;10.30;6.88;;;;;;;32.97;74.58;101015.44;5021705;28;66255;-30
2024/03/18 04:30:20;;;;;;;8.40;7.53;;;;;;;33.02;74.45;101017.50;5016970;28;70010;-32
2024/03/18 04:32:50;;;;;;;7.55;7.00;;;;;;;33.04;74.45;101015.38;5016531;28;65965;-31
2024/03/18 04:35:19;;;;;;;8.50;7.80;;;;;;;33.06;74.27;101007.81;5015759;28;70043;-31
2024/03/18 04:37:51;;;;;;;7.40;6.88;;;;;;;33.10;74.32;101003.59;5033592;28;66534;-31
2024/03/18 04:40:21;;;;;;;7.25;6.75;;;;;;;33.11;74.13;101000.63;5017434;28;70479;-30
2024/03/18 04:42:50;;;;;;;12.38;7.75;;;;;;;33.13;74.17;100992.25;5020796;28;66585;-31
2024/03/18 04:45:20;;;;;;;7.00;6.53;;;;;;;32.96;74.18;100969.47;5009279;28;70276;-32
2024/03/18 04:47:51;;;;;;;8.10;7.30;;;;;;;33.17;74.07;100988.00;5032720;28;66859;-30
2024/03/18 04:50:23;;;;;;;7.72;7.00;;;;;;;33.18;73.90;100981.47;5016610;28;70547;-32
2024/03/18 04:52:55;;;;;;;7.45;6.85;;;;;;;33.19;73.70;100983.16;5047291;28;65685;-31
2024/03/18 04:55:24;;;;;;;7.57;6.88;;;;;;;33.22;73.77;100974.53;5026449;28;70225;-30
2024/03/18 04:57:55;;;;;;;7.60;6.97;;;;;;;33.25;73.82;100974.06;5033054;28;66824;-31
2024/03/18 05:00:24;;;;;;;7.75;6.97;;;;;;;33.23;73.79;100954.44;5033098;28;69659;-31
2024/03/18 05:02:54;;;;;;;7.88;7.05;;;;;;;33.31;73.50;100954.09;5047551;28;66753;-31
2024/03/18 05:05:23;;;;;;;7.78;7.15;;;;;;;33.33;73.69;100945.72;5035469;28;69791;-31
2024/03/18 05:07:54;;;;;;;7.63;6.93;;;;;;;33.34;73.46;100945.47;5025412;28;67689;-32
2024/03/18 05:10:26;;;;;;;7.43;6.77;;;;;;;33.35;73.16;100930.00;5027251;28;71711;-32
2024/03/18 05:13:01;;;;;;;10.00;6.65;;;;;;;33.42;73.11;100938.03;5037859;28;66385;-31
2024/03/18 05:15:30;;;;;;;7.10;6.55;;;;;;;33.37;73.04;100923.22;5024925;28;70549;-31
2024/03/18 05:17:59;;;;;;;7.28;6.60;;;;;;;33.35;72.97;100914.50;5030357;28;66537;-31
2024/03/18 05:20:28;;;;;;;7.18;6.45;;;;;;;33.48;72.98;100915.31;5016995;28;70048;-32
2024/03/18 05:22:57;;;;;;;8.35;6.50;;;;;;;33.50;73.02;100910.47;5000362;28;66180;-31
2024/03/18 05:25:26;;;;;;;9.40;6.40;;;;;;;33.49;73.30;100908.78;5007982;28;69864;-31
2024/03/18 05:27:55;;;;;;;7.38;6.68;;;;;;;33.51;73.06;100899.34;5027643;28;66774;-30
2024/03/18 05:30:24;;;;;;;6.55;6.00;;;;;;;33.58;72.64;100904.69;5036434;28;70095;-31
2024/03/18 05:32:54;;;;;;;7.20;6.63;;;;;;;33.47;72.68;100875.59;5026818;28;65855;-34
2024/03/18 05:35:23;;;;;;;7.78;6.60;;;;;;;33.63;72.53;100887.66;5030089;28;69267;-33
2024/03/18 05:37:52;;;;;;;8.38;6.78;;;;;;;33.64;72.56;100890.16;5021874;28;66092;-31
2024/03/18 05:40:21;;;;;;;6.78;6.28;;;;;;;33.57;72.41;100864.94;5046688;28;70290;-31
2024/03/18 05:42:50;;;;;;;7.20;6.45;;;;;;;33.67;72.00;100873.34;5046150;28;65770;-32
2024/03/18 05:45:19;;;;;;;6.68;6.25;;;;;;;33.60;72.36;100850.91;5026673;28;70463;-31
2024/03/18 05:47:48;;;;;;;6.95;6.35;;;;;;;33.66;72.11;100855.38;5038760;28;66635;-30
2024/03/18 05:50:19;;;;;;;7.50;6.80;;;;;;;33.76;72.45;100855.56;5037093;28;70144;-31
2024/03/18 05:52:48;;;;;;;6.70;6.03;;;;;;;33.80;72.36;100862.19;5038579;28;65889;-32
2024/03/18 05:55:17;;;;;;;7.05;6.43;;;;;;;33.84;72.20;100850.84;5053698;28;71097;-31
2024/03/18 05:57:46;;;;;;;7.25;6.65;;;;;;;33.88;71.92;100846.53;5036568;28;67131;-31
2024/03/18 06:00:15;;;;;;;6.80;6.18;;;;;;;33.84;72.05;100832.59;5049867;28;70174;-32
2024/03/18 06:02:45;;;;;;;6.60;5.97;;;;;;;33.92;71.76;100839.56;5035272;28;66381;-31
2024/03/18 06:05:14;;;;;;;6.78;6.15;;;;;;;33.96;71.90;100832.56;5032703;28;69839;-34
2024/03/18 06:07:42;;;;;;;10.00;6.22;;;;;;;33.98;71.61;100835.88;5024367;28;65463;-32
2024/03/18 06:10:11;;;;;;;6.88;6.20;;;;;;;34.01;71.67;100824.50;5032754;28;70108;-32
2024/03/18 06:12:40;;;;;;;6.53;5.95;;;;;;;34.04;71.62;100818.56;5050734;28;66539;-31
2024/03/18 06:15:10;;;;;;;6.97;6.20;;;;;;;34.05;71.30;100814.81;5045928;28;69503;-32
2024/03/18 06:17:39;;;;;;;7.43;5.47;;;;;;;34.08;71.46;100808.88;5045575;28;66829;-31
2024/03/18 06:20:11;;;;;;;6.35;5.95;;;;;;;34.12;71.76;100806.50;5035300;28;69848;-31
2024/03/18 06:22:40;;;;;;;7.17;5.73;;;;;;;34.10;71.43;100805.91;5022589;28;66596;-31
2024/03/18 06:27:56;;;;;;;6.88;6.15;;;;;;;34.19;71.29;100799.84;5040052;28;65393;-31
2024/03/18 06:30:25;;;;;;;7.18;5.38;;;;;;;34.23;71.33;100794.72;5005493;28;70400;-32
2024/03/18 06:32:54;;;;;;;7.22;5.80;;;;;;;34.27;71.16;100798.63;5028176;28;66871;-32
2024/03/18 06:35:23;;;;;;;7.97;5.65;;;;;;;34.31;71.34;100790.78;5049290;28;70319;-31
2024/03/18 06:37:52;;;;;;;8.93;6.03;;;;;;;34.31;71.39;100779.88;5023837;28;66508;-32
2024/03/18 06:40:21;;;;;;;7.40;5.90;;;;;;;34.34;71.30;100780.19;5022809;28;69971;-32
2024/03/18 06:42:52;;;;;;;6.80;6.20;;;;;;;34.38;71.31;100777.81;5022119;28;66278;-31
2024/03/18 06:45:21;;;;;;;6.82;6.22;;;;;;;34.43;70.96;100783.34;5025322;28;70314;-31
2024/03/18 06:47:50;;;;;;;6.72;6.22;;;;;;;34.34;71.10;100754.88;5029714;28;67905;-30
2024/03/18 06:50:20;;;;;;;6.47;5.93;;;;;;;34.53;70.78;100769.91;5036608;28;71448;-31
2024/03/18 06:52:49;;;;;;;6.13;5.72;;;;;;;34.54;71.14;100757.91;5017538;28;65653;-32
2024/03/18 06:55:18;;;;;;;6.13;5.72;;;;;;;34.58;70.56;100764.56;5021674;28;70011;-31
2024/03/18 06:57:47;;;;;;;8.27;5.72;;;;;;;34.61;70.77;100752.34;5022904;28;66717;-30
2024/03/18 07:00:19;;;;;;;7.30;6.07;;;;;;;34.68;70.96;100756.53;5027962;28;69701;-31
2024/03/18 07:02:51;;;;;;;8.45;6.25;;;;;;;34.72;70.72;100756.06;5029932;28;66041;-31
2024/03/18 07:05:21;;;;;;;6.35;5.75;;;;;;;34.77;70.83;100745.22;5029972;28;70303;-33
2024/03/18 07:07:50;;;;;;;12.20;6.43;;;;;;;34.82;70.65;100748.00;5032275;28;66492;-32
2024/03/18 07:10:20;;;;;;;7.57;5.50;;;;;;;34.87;70.75;100734.47;5027366;28;70126;-32
2024/03/18 07:12:49;;;;;;;6.03;5.53;;;;;;;34.92;70.61;100737.28;5035606;28;66795;-32
2024/03/18 07:15:18;;;;;;;8.77;6.07;;;;;;;34.96;70.80;100724.78;5036586;28;69996;-32
2024/03/18 07:17:47;;;;;;;8.35;5.80;;;;;;;35.01;70.23;100724.03;5016903;28;66105;-32
2024/03/18 07:20:16;;;;;;;8.00;6.07;;;;;;;35.06;69.98;100729.56;5001806;28;70299;-30
2024/03/18 07:22:44;;;;;;;6.15;5.55;;;;;;;35.12;69.98;100723.94;5017580;28;65257;-31
2024/03/18 07:25:20;;;;;;;5.63;5.22;;;;;;;35.16;70.28;100720.69;5003779;28;69815;-32
2024/03/18 07:27:49;;;;;;;6.00;5.40;;;;;;;35.19;70.03;100715.56;5017583;28;67053;-31
2024/03/18 07:30:18;;;;;;;5.15;4.80;;;;;;;35.25;70.25;100716.47;5023413;28;69577;-31
2024/03/18 07:32:47;;;;;;;5.50;5.05;;;;;;;35.32;70.01;100726.06;5036669;28;65639;-32
2024/03/18 07:35:16;;;;;;;5.63;5.13;;;;;;;35.39;69.57;100717.72;5032273;28;70642;-30
2024/03/18 07:37:46;;;;;;;4.97;4.57;;;;;;;35.42;69.42;100706.28;5020823;28;66617;-32
2024/03/18 07:40:15;;;;;;;6.80;4.60;;;;;;;35.47;69.36;100711.81;5020529;28;68958;-32
2024/03/18 07:42:44;;;;;;;5.22;4.20;;;;;;;35.52;69.34;100714.59;4993321;28;66680;-33
2024/03/18 07:45:13;;;;;;;8.15;4.97;;;;;;;35.59;69.51;100714.41;5001876;28;69809;-31
2024/03/18 07:47:42;;;;;;;4.93;4.63;;;;;;;35.64;69.32;100708.19;5029893;28;66474;-31
2024/03/18 07:50:11;;;;;;;5.03;4.53;;;;;;;35.69;69.10;100709.06;5022611;28;69846;-31
2024/03/18 07:52:39;;;;;;;4.68;4.30;;;;;;;35.73;69.32;100701.19;5001771;28;66528;-31
2024/03/18 07:55:10;;;;;;;4.25;3.92;;;;;;;35.79;69.03;100697.44;5022125;28;69596;-32
2024/03/18 07:57:39;;;;;;;4.40;4.00;;;;;;;35.85;69.08;100696.38;5012627;28;66839;-31
2024/03/18 08:00:11;;;;;;;5.45;4.57;;;;;;;35.90;68.97;100690.97;5027020;28;70147;-31
2024/03/18 08:02:41;;;;;;;6.00;3.95;;;;;;;35.97;68.62;100697.06;5025712;28;65333;-32
2024/03/18 08:05:11;;;;;;;4.57;4.18;;;;;;;36.00;68.69;100691.06;4999000;28;70543;-33
2024/03/18 08:07:40;;;;;;;3.83;3.53;;;;;;;36.09;68.46;100691.44;5030385;28;66572;-31
2024/03/18 08:10:09;;;;;;;5.60;4.13;;;;;;;36.15;68.35;100684.13;5036924;28;69533;-33
2024/03/18 08:12:38;;;;;;;4.45;4.05;;;;;;;36.06;68.20;100669.31;5046655;28;66638;-31
2024/03/18 08:15:08;;;;;;;5.20;4.53;;;;;;;36.26;68.26;100691.31;5045139;28;69763;-31
2024/03/18 08:17:37;;;;;;;7.35;3.95;;;;;;;36.31;68.36;100688.63;5031055;28;66740;-31
2024/03/18 08:20:07;;;;;;;3.90;3.47;;;;;;;36.36;68.17;100677.72;5039682;28;70195;-31
2024/03/18 08:22:36;;;;;;;4.45;4.05;;;;;;;36.41;68.01;100676.91;5046837;28;66537;-33
2024/03/18 08:25:08;;;;;;;5.35;3.50;;;;;;;36.19;67.83;100625.16;5017523;28;69016;-31
2024/03/18 08:27:37;;;;;;;7.40;4.10;;;;;;;36.56;67.67;100673.50;5029557;28;66322;-32
2024/03/18 08:30:07;;;;;;;4.07;3.50;;;;;;;36.57;68.23;100680.63;5022426;28;70631;-31
2024/03/18 08:32:36;;;;;;;3.60;3.30;;;;;;;36.65;67.68;100672.72;5017855;28;65844;-32
2024/03/18 08:35:07;;;;;;;4.07;3.78;;;;;;;36.73;67.13;100671.41;5018636;28;69702;-32
2024/03/18 08:37:36;;;;;;;5.75;3.65;;;;;;;36.79;67.41;100669.53;5024117;28;67261;-31
2024/03/18 08:40:06;;;;;;;5.35;3.40;;;;;;;36.87;67.73;100669.84;5042590;28;69634;-31
2024/03/18 08:42:36;;;;;;;7.40;3.72;;;;;;;36.85;67.22;100669.28;5018699;28;66333;-32
2024/03/18 08:45:05;;;;;;;5.25;3.67;;;;;;;36.97;67.50;100669.06;5022673;28;69911;-32
2024/03/18 08:47:34;;;;;;;6.40;3.50;;;;;;;37.05;67.11;100673.22;5006221;28;66234;-32
2024/03/18 08:50:04;;;;;;;9.13;3.60;;;;;;;37.09;66.92;100677.06;5028844;28;69960;-33
2024/03/18 08:52:36;;;;;;;6.20;4.03;;;;;;;37.12;66.69;100673.81;5020041;28;65718;-32
2024/03/18 08:55:06;;;;;;;5.13;3.83;;;;;;;37.22;66.52;100678.47;5026562;28;70229;-31
2024/03/18 08:57:35;;;;;;;3.90;3.53;;;;;;;37.26;66.22;100683.13;5049786;28;66180;-33
2024/03/18 09:00:10;;;;;;;3.97;3.20;;;;;;;37.33;66.63;100683.72;5019461;28;70491;-32
2024/03/18 09:02:39;;;;;;;7.32;3.35;;;;;;;37.40;66.61;100683.44;5026055;28;66364;-32
2024/03/18 09:05:09;;;;;;;3.30;3.00;;;;;;;37.48;66.30;100679.38;5022566;28;70806;-33
2024/03/18 09:07:38;;;;;;;4.28;3.65;;;;;;;37.54;66.37;100681.06;5035307;28;66793;-30
2024/03/18 09:10:14;;;;;;;3.67;3.38;;;;;;;37.59;65.92;100681.06;5022458;28;69442;-32
2024/03/18 09:12:43;;;;;;;3.97;3.20;;;;;;;37.62;66.47;100686.00;5032188;28;65897;-32
2024/03/18 09:15:11;;;;;;;3.65;3.35;;;;;;;37.67;65.68;100677.78;5043335;28;70348;-35
2024/03/18 09:17:41;;;;;;;8.40;4.57;;;;;;;37.65;65.68;100676.41;5026081;28;66365;-33
2024/03/18 09:20:13;;;;;;;5.65;4.47;;;;;;;37.62;65.73;100675.03;5048807;28;70903;-33
2024/03/18 09:22:48;;;;;;;5.03;3.90;;;;;;;37.63;65.38;100686.81;5027457;28;65102;-31
2024/03/18 09:25:20;;;;;;;10.52;4.60;;;;;;;37.58;64.43;100684.06;5017422;28;69933;-36
2024/03/18 09:27:50;;;;;;;7.70;4.20;;;;;;;37.69;65.08;100686.53;5021914;28;65455;-33
2024/03/18 09:30:23;;;;;;;13.85;4.97;;;;;;;37.60;64.61;100688.16;5019465;28;70292;-32
2024/03/18 09:32:52;;;;;;;8.52;4.72;;;;;;;37.69;64.62;100697.47;5017386;28;66347;-32
2024/03/18 09:35:23;;;;;;;12.43;5.20;;;;;;;37.59;64.68;100694.75;5019607;28;70601;-32
2024/03/18 09:37:52;;;;;;;10.98;4.78;;;;;;;37.49;64.68;100694.72;5016096;28;66255;-32
2024/03/18 09:40:29;;;;;;;7.00;4.97;;;;;;;37.45;63.61;100707.28;5019476;28;69420;-33
2024/03/18 09:42:58;;;;;;;7.82;4.93;;;;;;;37.55;64.74;100696.38;5028162;28;66355;-31
2024/03/18 09:45:29;;;;;;;7.28;4.93;;;;;;;37.54;64.92;100711.16;5023850;28;70247;-32
2024/03/18 09:47:58;;;;;;;5.30;4.47;;;;;;;37.57;64.33;100705.13;5036994;28;66855;-32
2024/03/18 09:50:29;;;;;;;8.03;4.53;;;;;;;37.50;65.19;100710.88;5025143;28;69915;-31
2024/03/18 09:52:58;;;;;;;4.60;4.20;;;;;;;37.54;64.42;100695.56;5043215;28;66200;-32
2024/03/18 09:55:28;;;;;;;7.75;4.70;;;;;;;37.59;64.44;100713.91;5024744;28;70445;-32
2024/03/18 09:57:57;;;;;;;6.25;4.88;;;;;;;37.47;64.38;100711.38;5026020;28;66952;-32
2024/03/18 10:00:26;;;;;;;13.35;5.20;;;;;;;37.52;64.44;100713.31;5016642;28;70189;-32
2024/03/18 10:02:59;;;;;;;13.57;5.05;;;;;;;37.30;63.79;100678.75;5001465;28;66079;-33
2024/03/18 10:05:29;;;;;;;8.13;4.53;;;;;;;37.70;64.79;100715.56;5022873;28;70532;-32
2024/03/18 10:07:58;;;;;;;11.82;4.47;;;;;;;37.71;64.29;100721.84;5027950;28;66335;-32
2024/03/18 10:10:28;;;;;;;6.35;4.57;;;;;;;37.69;64.10;100719.38;5009977;28;70682;-32
2024/03/18 10:12:56;;;;;;;11.65;4.57;;;;;;;37.81;63.68;100726.50;5003072;28;66601;-33
2024/03/18 10:15:27;;;;;;;8.00;4.13;;;;;;;37.69;63.14;100724.84;5021744;28;70180;-34
2024/03/18 10:17:56;;;;;;;6.70;4.18;;;;;;;37.79;63.81;100727.63;5018049;28;66363;-32
2024/03/18 10:20:25;;;;;;;12.52;4.43;;;;;;;37.67;63.69;100732.53;5021395;28;69932;-33
2024/03/18 10:22:54;;;;;;;5.88;4.50;;;;;;;37.75;63.96;100739.38;5021510;28;65722;-32
2024/03/18 10:25:26;;;;;;;9.90;4.07;;;;;;;37.70;63.08;100737.47;5018799;28;70433;-34
2024/03/18 10:27:55;;;;;;;5.43;4.38;;;;;;;37.70;63.10;100734.72;5046400;28;65853;-33
2024/03/18 10:30:24;;;;;;;6.15;4.25;;;;;;;37.71;63.93;100744.56;5008475;28;69386;-33
2024/03/18 10:32:57;;;;;;;6.53;4.35;;;;;;;37.64;62.95;100748.66;5024247;28;66357;-31
2024/03/18 10:35:26;;;;;;;12.70;4.57;;;;;;;37.69;63.48;100741.28;5020584;28;70333;-32
2024/03/18 10:38:04;;;;;;;8.55;4.38;;;;;;;37.63;62.92;100745.09;5013363;28;66427;-32
2024/03/18 10:40:38;;;;;;;13.38;5.13;;;;;;;37.39;63.66;100720.13;5021231;28;70449;-32
2024/03/18 10:43:12;;;;;;;15.52;4.57;;;;;;;37.52;63.36;100751.63;5029113;28;65767;-32
2024/03/18 10:45:49;;;;;;;6.40;4.70;;;;;;;37.50;63.36;100753.81;5032726;28;69734;-32
2024/03/18 10:48:18;;;;;;;6.60;4.47;;;;;;;37.50;63.06;100760.13;5042550;28;66439;-31
2024/03/18 10:50:48;;;;;;;6.93;4.97;;;;;;;37.44;63.36;100749.38;5022561;28;69777;-32
2024/03/18 10:53:21;;;;;;;6.15;5.30;;;;;;;37.28;63.66;100732.94;5050568;28;67025;-32
2024/03/18 10:55:54;;;;;;;5.13;4.63;;;;;;;37.41;63.53;100760.88;5020620;28;70623;-33
2024/03/18 10:58:26;;;;;;;8.98;5.75;;;;;;;37.35;64.02;100769.06;5021360;28;66575;-32
2024/03/18 11:00:58;;;;;;;16.38;5.88;;;;;;;37.29;62.86;100781.06;5006659;28;70440;-32
2024/03/18 11:03:28;;;;;;;10.30;5.65;;;;;;;37.29;62.99;100785.72;5023180;28;66381;-33
2024/03/18 11:05:59;;;;;;;16.98;6.10;;;;;;;37.24;63.51;100788.44;5024588;28;69960;-32
2024/03/18 11:08:28;;;;;;;9.40;6.43;;;;;;;37.19;63.34;100786.50;5029840;28;66626;-31
2024/03/18 11:10:58;;;;;;;12.20;6.65;;;;;;;37.12;63.30;100785.91;5046581;28;69860;-32
2024/03/18 11:13:36;;;;;;;7.40;5.68;;;;;;;37.04;62.84;100794.63;5048164;28;65623;-33
2024/03/18 11:16:07;;;;;;;13.82;6.18;;;;;;;36.76;63.33;100766.53;5035749;28;70486;-35
2024/03/18 11:18:46;;;;;;;10.77;6.25;;;;;;;36.86;62.90;100804.88;5025251;28;65289;-32
2024/03/18 11:21:21;;;;;;;21.05;7.70;;;;;;;36.68;62.19;100810.75;5019477;28;69574;-33
2024/03/18 11:24:00;;;;;;;10.70;6.00;;;;;;;36.67;61.92;100812.66;5025593;28;65188;-31
2024/03/18 11:26:30;;;;;;;10.77;6.43;;;;;;;36.68;62.84;100813.50;5033226;28;70508;-32
2024/03/18 11:29:05;;;;;;;10.93;6.10;;;;;;;36.63;62.56;100832.56;5020270;28;66335;-32
2024/03/18 11:31:38;;;;;;;7.07;6.30;;;;;;;36.60;63.31;100830.38;5018799;28;70671;-32
2024/03/18 11:34:10;;;;;;;6.85;5.93;;;;;;;36.58;63.06;100840.72;5046842;28;65291;-31
2024/03/18 11:36:39;;;;;;;8.07;5.78;;;;;;;36.50;63.79;100838.44;5036157;28;69607;-34